Terminal Aerodrome Forecast
Issued by NWS

Home | Current Version | Previous Version | Text Only | Print | Product List | Glossary On
Versions: 1 2 3 4 5 6 7 8 9 10 11 12 13 14 15 16
000
FTUS45 KTFX 030500
TAFCTB
TAF
KCTB 030520Z 0306/0406 30012KT P6SM SCT040 OVC080
     FM031100 33015G25KT P6SM VCSH SCT015 OVC040
     FM032000 33020G28KT P6SM -SHRA BKN035
      TEMPO 0320/0324 4SM -RA BR SCT015 OVC025=

USA.gov is the U.S. government's official web portal to all federal, state and local government web resources and services.